Andrew, Illinois
Current Conditions -  °F | °C
As of 8:52 AM on Friday 31 Oct 2014 (Local Time) from KSPI Reporting Station
Broken Clouds Broken Clouds  
Wind Chill: 28°   Ceiling: 3800
Heat Index: 39°   Visibility: 10mi
Dew Point: 22°   Wind: 26mph
Humidity: 50%   Direction: 350°N
Pressure: 30.23"   Gusts: 40mph
Location:  39.854°N, 89.6295°W
Report Text: KSPI 311352Z 35023G35KT 10SM BKN038 BKN046 04/M06 A3023 RMK AO2 PK WND 35035/1349 SLP241 T00391056
Loading
Personal Weather Stations






























Interactive Weather Map
Tropical Storm Tracking
New forecast layout! Learn more

10-Day Weather Forecast

Advertisements
Track Severe Weather on mobile